createdAt,value
2022-12-19T00:01:58.207Z,-1.21
2022-12-19T00:04:30.422Z,-1.22
2022-12-19T00:07:02.562Z,-1.21
2022-12-19T00:09:34.888Z,-1.77
2022-12-19T00:12:15.905Z,-1.56
2022-12-19T00:14:51.857Z,-1.55
2022-12-19T00:17:23.953Z,-1.71
2022-12-19T00:19:56.074Z,-1.62
2022-12-19T00:22:28.462Z,-1.51
2022-12-19T00:25:00.676Z,-1.58
2022-12-19T00:27:37.047Z,-1.66
2022-12-19T00:30:11.116Z,-1.40
2022-12-19T00:32:44.059Z,-1.38
2022-12-19T00:35:16.829Z,-1.54
2022-12-19T00:37:49.708Z,-1.50
2022-12-19T00:40:22.277Z,-1.84
2022-12-19T00:42:56.413Z,-1.67
2022-12-19T00:45:30.554Z,-1.37
2022-12-19T00:48:02.618Z,-1.51
2022-12-19T00:50:35.926Z,-1.43
2022-12-19T00:53:08.026Z,-1.32
2022-12-19T00:55:41.927Z,-1.44
2022-12-19T00:58:14.369Z,-1.51
2022-12-19T01:00:46.710Z,-1.38
2022-12-19T01:03:18.988Z,-1.46
2022-12-19T01:05:52.716Z,-1.30
2022-12-19T01:08:24.874Z,-1.43
2022-12-19T01:10:58.870Z,-1.22
2022-12-19T01:13:33.307Z,-1.17
2022-12-19T01:16:09.879Z,-1.40
2022-12-19T01:18:42.352Z,-1.45
2022-12-19T01:21:15.054Z,-1.40
2022-12-19T01:23:47.081Z,-1.51
2022-12-19T01:26:19.090Z,-1.64
2022-12-19T01:28:53.256Z,-1.58
2022-12-19T01:31:26.744Z,-1.33
2022-12-19T01:34:00.100Z,-1.28
2022-12-19T01:36:39.574Z,-1.23
2022-12-19T01:39:12.378Z,-1.33
2022-12-19T01:41:44.618Z,-1.45
2022-12-19T01:44:16.693Z,-1.28
2022-12-19T01:46:53.846Z,-1.35
2022-12-19T01:49:30.267Z,-1.30
2022-12-19T01:52:05.871Z,-1.46
2022-12-19T01:54:42.229Z,-1.68
2022-12-19T01:57:17.386Z,-1.57
2022-12-19T01:59:53.584Z,-1.39
2022-12-19T02:02:30.569Z,-1.53
2022-12-19T02:05:04.625Z,-1.40
2022-12-19T02:07:38.478Z,-1.35
2022-12-19T02:10:11.028Z,-1.32
2022-12-19T02:12:45.438Z,-1.33
2022-12-19T02:15:19.170Z,-1.37
2022-12-19T02:18:10.431Z,-1.30
2022-12-19T02:21:02.612Z,-1.28
2022-12-19T02:24:10.330Z,-1.28
2022-12-19T02:26:57.865Z,-1.49
2022-12-19T02:30:06.119Z,-1.36
2022-12-19T02:32:52.292Z,-1.31
2022-12-19T02:35:32.318Z,-1.31
2022-12-19T02:38:15.612Z,-1.43
2022-12-19T02:40:53.004Z,-1.28
2022-12-19T02:43:31.833Z,-1.35
2022-12-19T02:46:07.188Z,-1.45
2022-12-19T02:48:40.832Z,-1.36
2022-12-19T02:51:13.071Z,-1.34
2022-12-19T02:53:45.726Z,-1.39
2022-12-19T02:56:36.454Z,-1.50
2022-12-19T02:59:37.067Z,-1.43
2022-12-19T03:02:17.471Z,-1.40
2022-12-19T03:04:59.663Z,-1.37
2022-12-19T03:07:36.843Z,-1.47
2022-12-19T03:10:18.748Z,-1.28
2022-12-19T03:12:54.904Z,-1.31
2022-12-19T03:15:28.800Z,-1.28
2022-12-19T03:18:02.139Z,-1.29
2022-12-19T03:20:44.906Z,-1.51
2022-12-19T03:23:18.076Z,-1.58
2022-12-19T03:25:53.607Z,-1.45
2022-12-19T03:28:32.368Z,-1.32
2022-12-19T03:31:06.455Z,-1.54
2022-12-19T03:33:41.367Z,-1.33
2022-12-19T03:36:20.013Z,-1.60
2022-12-19T03:38:52.580Z,-1.58
2022-12-19T03:41:39.793Z,-1.47
2022-12-19T03:44:14.680Z,-1.66
2022-12-19T03:46:53.100Z,-1.58
2022-12-19T03:49:25.201Z,-1.61
2022-12-19T03:52:09.609Z,-1.55
2022-12-19T03:54:45.025Z,-1.63
2022-12-19T03:57:21.231Z,-1.51
2022-12-19T03:59:57.846Z,-1.44
2022-12-19T04:02:31.585Z,-1.47
2022-12-19T04:05:08.885Z,-1.41
2022-12-19T04:07:42.802Z,-1.46
2022-12-19T04:10:18.015Z,-1.43
2022-12-19T04:12:54.350Z,-1.38
2022-12-19T04:15:36.331Z,-1.60
2022-12-19T04:18:12.038Z,-1.44
2022-12-19T04:20:50.674Z,-1.33
2022-12-19T04:23:27.387Z,-1.34
2022-12-19T04:26:06.357Z,-1.30
2022-12-19T04:28:43.494Z,-1.31
2022-12-19T04:31:17.298Z,-1.35
2022-12-19T04:33:49.424Z,-1.46
2022-12-19T04:36:21.506Z,-1.48
2022-12-19T04:38:53.720Z,-1.40
2022-12-19T04:41:25.829Z,-1.56
2022-12-19T04:43:58.163Z,-1.43
2022-12-19T04:46:30.332Z,-1.61
2022-12-19T04:49:02.739Z,-1.47
2022-12-19T04:51:35.003Z,-1.40
2022-12-19T04:54:07.517Z,-1.39
2022-12-19T04:56:39.565Z,-1.41
2022-12-19T04:59:12.666Z,-1.50
2022-12-19T05:01:44.913Z,-1.45
2022-12-19T05:04:17.239Z,-1.56
2022-12-19T05:06:49.329Z,-1.67
2022-12-19T05:09:21.769Z,-1.58
2022-12-19T05:11:54.132Z,-1.48
2022-12-19T05:14:26.362Z,-1.47
2022-12-19T05:17:01.407Z,-1.50
2022-12-19T05:19:34.160Z,-1.40
2022-12-19T05:22:08.537Z,-1.49
2022-12-19T05:24:40.681Z,-1.37
2022-12-19T05:27:12.901Z,-1.31
2022-12-19T05:29:44.975Z,-1.24
2022-12-19T05:32:17.077Z,-1.33
2022-12-19T05:34:49.156Z,-1.23
2022-12-19T05:37:21.215Z,-1.19
2022-12-19T05:39:53.275Z,-1.20
2022-12-19T05:42:26.152Z,-1.19
2022-12-19T05:44:58.740Z,-1.18
2022-12-19T05:47:30.836Z,-1.28
2022-12-19T05:50:06.095Z,-1.22
2022-12-19T05:52:39.283Z,-1.20
2022-12-19T05:55:12.201Z,-1.24
2022-12-19T05:57:44.308Z,-1.29
2022-12-19T06:00:18.019Z,-1.24
2022-12-19T06:02:50.152Z,-1.32
2022-12-19T06:05:22.570Z,-1.38
2022-12-19T06:07:55.164Z,-1.34
2022-12-19T06:10:27.312Z,-1.37
2022-12-19T06:12:59.370Z,-1.43
2022-12-19T06:15:34.047Z,-1.34
2022-12-19T06:18:09.827Z,-1.29
2022-12-19T06:20:42.803Z,-1.28
2022-12-19T06:23:14.807Z,-1.28
2022-12-19T06:25:46.936Z,-1.38
2022-12-19T06:28:20.178Z,-1.32
2022-12-19T06:30:52.579Z,-1.23
2022-12-19T06:33:24.813Z,-1.26
2022-12-19T06:36:01.900Z,-1.25
2022-12-19T06:38:36.376Z,-1.27
2022-12-19T06:41:27.611Z,-1.24
2022-12-19T06:44:02.610Z,-1.20
2022-12-19T06:46:38.441Z,-1.22
2022-12-19T06:49:11.695Z,-1.39
2022-12-19T06:51:44.263Z,-1.28
2022-12-19T06:54:17.547Z,-1.29
2022-12-19T06:56:49.855Z,-1.39
2022-12-19T06:59:22.132Z,-1.33
2022-12-19T07:01:59.164Z,-1.66
2022-12-19T07:04:37.950Z,-1.40
2022-12-19T07:07:10.473Z,-1.55
2022-12-19T07:09:42.611Z,-1.69
2022-12-19T07:12:14.899Z,-1.62
2022-12-19T07:14:52.966Z,-1.63
2022-12-19T07:17:27.118Z,-1.60
2022-12-19T07:20:00.821Z,-1.51
2022-12-19T07:22:36.512Z,-1.45
2022-12-19T07:25:10.653Z,-1.30
2022-12-19T07:27:43.479Z,-1.40
2022-12-19T07:30:16.092Z,-1.35
2022-12-19T07:32:48.232Z,-1.17
2022-12-19T07:35:23.563Z,-1.30
2022-12-19T07:37:55.801Z,-1.28
2022-12-19T07:40:27.908Z,-1.23
2022-12-19T07:43:03.032Z,-1.37
2022-12-19T07:45:37.871Z,-1.29
2022-12-19T07:48:10.359Z,-1.12
2022-12-19T07:50:43.217Z,-1.07
2022-12-19T07:53:15.630Z,-1.15
2022-12-19T07:55:51.185Z,-1.09
2022-12-19T07:58:23.271Z,-1.07
2022-12-19T08:01:00.876Z,-1.27
2022-12-19T08:03:33.449Z,-1.07
2022-12-19T08:06:07.840Z,-0.95
2022-12-19T08:08:40.282Z,-1.04
2022-12-19T08:11:14.793Z,-1.11
2022-12-19T08:13:47.391Z,-1.16
2022-12-19T08:16:21.749Z,-1.08
2022-12-19T08:18:54.023Z,-1.13
2022-12-19T08:21:26.719Z,-0.96
2022-12-19T08:23:59.702Z,-1.15
2022-12-19T08:26:38.343Z,-0.98
2022-12-19T08:29:13.494Z,-0.81
2022-12-19T08:31:45.596Z,-0.85
2022-12-19T08:34:17.883Z,-0.80
2022-12-19T08:36:50.187Z,-0.79
2022-12-19T08:39:22.585Z,-0.52
2022-12-19T08:41:54.724Z,-0.68
2022-12-19T08:44:27.634Z,-0.64
2022-12-19T08:46:59.745Z,-0.54
2022-12-19T08:49:32.009Z,-0.59
2022-12-19T08:52:04.397Z,-0.58
2022-12-19T08:54:36.889Z,-0.38
2022-12-19T08:57:09.549Z,-0.34
2022-12-19T08:59:41.721Z,-0.26
2022-12-19T09:02:16.173Z,-0.19
2022-12-19T09:05:57.669Z,-0.15
2022-12-19T09:07:40.891Z,-0.11
2022-12-19T09:10:13.529Z,-0.14
2022-12-19T09:12:50.102Z,-0.08
2022-12-19T09:15:25.171Z,-0.13
2022-12-19T09:17:58.151Z,-0.09
2022-12-19T09:20:30.630Z,-0.06
2022-12-19T09:23:02.838Z,0.15
2022-12-19T09:25:35.165Z,0.19
2022-12-19T09:31:00.565Z,0.36
2022-12-19T09:33:41.255Z,0.35
2022-12-19T09:36:18.514Z,0.46
2022-12-19T09:38:51.515Z,0.52
2022-12-19T09:41:41.818Z,0.53
2022-12-19T09:44:29.013Z,0.44
2022-12-19T09:47:02.969Z,0.43
2022-12-19T09:49:41.870Z,0.73
2022-12-19T09:52:19.379Z,0.82
2022-12-19T09:54:55.061Z,0.72
2022-12-19T09:57:38.319Z,0.89
2022-12-19T10:00:17.269Z,0.87
2022-12-19T10:02:53.510Z,0.80
2022-12-19T10:06:30.891Z,1.09
2022-12-19T10:08:26.936Z,1.17
2022-12-19T10:12:36.447Z,1.25
2022-12-19T10:14:16.128Z,1.42
2022-12-19T10:17:23.110Z,1.56
2022-12-19T10:20:04.772Z,1.72
2022-12-19T10:22:45.637Z,1.80
2022-12-19T10:25:30.332Z,1.78
2022-12-19T10:28:16.932Z,1.72
2022-12-19T10:31:01.491Z,1.89
2022-12-19T10:33:45.604Z,2.03
2022-12-19T10:36:17.803Z,2.04
2022-12-19T10:38:58.104Z,2.03
2022-12-19T10:41:32.811Z,2.11
2022-12-19T10:44:07.549Z,2.13
2022-12-19T10:46:46.184Z,2.18
2022-12-19T10:49:21.485Z,2.14
2022-12-19T10:52:02.917Z,2.19
2022-12-19T10:54:44.176Z,2.29
2022-12-19T10:57:27.107Z,2.24
2022-12-19T11:00:03.057Z,2.33
2022-12-19T11:02:45.170Z,2.36
2022-12-19T11:05:30.338Z,2.44
2022-12-19T11:08:13.045Z,2.27
2022-12-19T11:13:28.388Z,2.49
2022-12-19T11:18:41.509Z,2.42
2022-12-19T11:21:11.527Z,2.56
2022-12-19T11:27:52.352Z,2.64
2022-12-19T11:30:38.647Z,2.53
2022-12-19T11:30:41.369Z,2.59
2022-12-19T11:30:46.252Z,2.65
2022-12-19T11:34:21.317Z,2.64
2022-12-19T11:37:02.098Z,2.81
2022-12-19T11:39:41.636Z,2.91
2022-12-19T11:42:22.433Z,2.83
2022-12-19T11:45:01.685Z,2.95
2022-12-19T11:47:41.718Z,2.97
2022-12-19T11:50:19.331Z,2.95
2022-12-19T11:53:05.928Z,2.96
2022-12-19T11:55:47.484Z,2.85
2022-12-19T11:58:19.861Z,3.04
2022-12-19T12:00:59.001Z,2.97
2022-12-19T12:03:45.046Z,3.11
2022-12-19T12:06:39.954Z,2.91
2022-12-19T12:10:48.594Z,3.12
2022-12-19T12:19:48.579Z,3.19
2022-12-19T12:26:30.982Z,3.18
2022-12-19T12:31:05.045Z,3.07
2022-12-19T12:31:07.462Z,2.95
2022-12-19T12:31:54.267Z,3.21
2022-12-19T12:32:05.397Z,3.04
2022-12-19T12:35:42.528Z,3.27
2022-12-19T12:40:35.726Z,3.35
2022-12-19T12:43:16.395Z,3.52
2022-12-19T12:45:48.853Z,3.62
2022-12-19T12:48:27.824Z,3.57
2022-12-19T12:51:03.431Z,3.46
2022-12-19T12:53:40.208Z,3.53
2022-12-19T12:56:16.052Z,3.48
2022-12-19T12:59:06.181Z,3.40
2022-12-19T13:01:41.587Z,3.33
2022-12-19T13:04:28.310Z,3.29
2022-12-19T13:07:21.743Z,3.33
2022-12-19T13:10:07.040Z,3.44
2022-12-19T13:13:05.171Z,3.46
2022-12-19T13:15:46.098Z,3.44
2022-12-19T13:18:34.674Z,3.59
2022-12-19T13:21:10.094Z,3.57
2022-12-19T13:24:16.201Z,3.53
2022-12-19T13:26:53.338Z,3.50
2022-12-19T13:29:35.054Z,3.51
2022-12-19T13:32:18.529Z,3.36
2022-12-19T13:35:06.938Z,3.45
2022-12-19T13:39:51.267Z,3.50
2022-12-19T13:41:22.667Z,3.56
2022-12-19T13:44:01.411Z,3.49
2022-12-19T13:46:41.548Z,3.47
2022-12-19T13:49:20.648Z,3.49
2022-12-19T13:51:57.136Z,3.40
2022-12-19T13:54:34.800Z,3.52
2022-12-19T13:57:22.058Z,3.55
2022-12-19T13:59:59.687Z,3.59
2022-12-19T14:02:44.975Z,3.43
2022-12-19T14:06:17.236Z,3.42
2022-12-19T14:08:26.587Z,3.39
2022-12-19T14:11:39.857Z,3.42
2022-12-19T14:14:19.208Z,3.48
2022-12-19T14:16:57.051Z,3.36
2022-12-19T14:19:31.028Z,3.43
2022-12-19T14:22:22.741Z,3.46
2022-12-19T14:25:10.028Z,3.41
2022-12-19T14:28:24.866Z,3.40
2022-12-19T14:30:53.157Z,3.37
2022-12-19T14:33:45.706Z,3.35
2022-12-19T14:36:29.241Z,3.42
2022-12-19T14:39:22.026Z,3.40
2022-12-19T14:42:20.267Z,3.37
2022-12-19T14:52:34.841Z,3.29
2022-12-19T14:54:03.815Z,3.25
2022-12-19T14:54:28.466Z,3.23
2022-12-19T14:57:25.454Z,3.25
2022-12-19T15:01:09.085Z,3.26
2022-12-19T15:03:24.636Z,3.17
2022-12-19T15:07:05.936Z,3.21
2022-12-19T15:10:59.862Z,3.28
2022-12-19T15:13:47.405Z,3.37
2022-12-19T15:15:25.833Z,3.31
2022-12-19T15:17:58.702Z,3.35
2022-12-19T15:20:30.861Z,3.31
2022-12-19T15:23:04.327Z,3.36
2022-12-19T15:26:02.795Z,3.25
2022-12-19T15:28:35.593Z,3.18
2022-12-19T15:31:14.901Z,3.19
2022-12-19T15:34:32.232Z,3.04
2022-12-19T15:36:39.680Z,3.11
2022-12-19T15:39:12.392Z,3.06
2022-12-19T15:41:46.892Z,2.98
2022-12-19T15:44:22.321Z,3.06
2022-12-19T15:46:55.432Z,3.15
2022-12-19T15:49:27.838Z,3.13
2022-12-19T15:52:00.057Z,3.05
2022-12-19T15:54:49.800Z,3.03
2022-12-19T15:57:30.325Z,3.19
2022-12-19T16:00:04.045Z,3.15
2022-12-19T16:05:33.120Z,3.05
2022-12-19T16:08:11.440Z,3.06
2022-12-19T16:10:45.268Z,3.12
2022-12-19T16:13:22.132Z,3.15
2022-12-19T16:15:55.717Z,2.98
2022-12-19T16:18:28.285Z,3.20
2022-12-19T16:21:00.538Z,3.18
2022-12-19T16:23:32.856Z,3.17
2022-12-19T16:26:05.059Z,3.17
2022-12-19T16:28:39.194Z,3.17
2022-12-19T16:31:17.958Z,3.05
2022-12-19T16:33:50.225Z,3.20
2022-12-19T16:36:22.707Z,3.12
2022-12-19T16:38:55.178Z,2.97
2022-12-19T16:41:28.582Z,3.07
2022-12-19T16:44:01.982Z,3.15
2022-12-19T16:46:35.254Z,3.29
2022-12-19T16:49:15.513Z,3.13
2022-12-19T16:51:48.591Z,3.12
2022-12-19T16:54:21.958Z,3.07
2022-12-19T16:56:55.131Z,3.02
2022-12-19T16:59:32.090Z,3.05
2022-12-19T17:02:16.252Z,3.16
2022-12-19T17:04:53.736Z,3.05
2022-12-19T17:07:26.687Z,3.12
2022-12-19T17:09:59.369Z,3.19
2022-12-19T17:12:32.245Z,3.14
2022-12-19T17:15:06.467Z,3.11
2022-12-19T17:17:38.832Z,3.11
2022-12-19T17:20:18.788Z,3.14
2022-12-19T17:22:51.441Z,3.15
2022-12-19T17:25:26.200Z,3.07
2022-12-19T17:27:58.841Z,3.05
2022-12-19T17:30:31.259Z,3.11
2022-12-19T17:33:03.556Z,3.18
2022-12-19T17:35:37.880Z,3.16
2022-12-19T17:38:13.956Z,3.06
2022-12-19T17:40:46.991Z,3.04
2022-12-19T17:43:19.574Z,3.07
2022-12-19T17:45:52.687Z,3.09
2022-12-19T17:48:29.023Z,3.11
2022-12-19T17:51:02.794Z,3.09
2022-12-19T17:53:36.076Z,3.05
2022-12-19T17:56:13.803Z,3.05
2022-12-19T17:58:46.507Z,3.08
2022-12-19T18:01:23.674Z,3.01
2022-12-19T18:03:57.577Z,2.83
2022-12-19T18:06:34.452Z,2.88
2022-12-19T18:09:07.206Z,2.91
2022-12-19T18:11:42.065Z,3.11
2022-12-19T18:14:14.937Z,3.15
2022-12-19T18:16:49.308Z,3.14
2022-12-19T18:19:21.100Z,3.01
2022-12-19T18:21:53.382Z,3.04
2022-12-19T18:24:31.207Z,3.21
2022-12-19T18:27:05.645Z,3.28
2022-12-19T18:29:38.492Z,3.22
2022-12-19T18:32:17.409Z,3.16
2022-12-19T18:34:49.847Z,3.21
2022-12-19T18:37:22.986Z,3.07
2022-12-19T18:39:55.818Z,3.09
2022-12-19T18:42:28.125Z,3.17
2022-12-19T18:45:00.807Z,3.03
2022-12-19T18:47:33.441Z,3.17
2022-12-19T18:50:10.775Z,3.25
2022-12-19T18:52:42.957Z,3.27
2022-12-19T18:55:20.383Z,3.09
2022-12-19T18:57:53.199Z,3.19
2022-12-19T19:00:27.949Z,3.18
2022-12-19T19:03:04.095Z,3.14
2022-12-19T19:05:40.403Z,3.24
2022-12-19T19:08:19.133Z,3.14
2022-12-19T19:10:57.369Z,3.15
2022-12-19T19:13:31.493Z,3.01
2022-12-19T19:16:12.367Z,3.16
2022-12-19T19:18:45.600Z,3.11
2022-12-19T19:21:18.471Z,3.15
2022-12-19T19:23:55.315Z,3.31
2022-12-19T19:26:27.649Z,3.16
2022-12-19T19:28:59.775Z,3.11
2022-12-19T19:31:35.414Z,3.17
2022-12-19T19:34:12.449Z,3.23
2022-12-19T19:36:49.733Z,3.14
2022-12-19T19:39:22.980Z,3.11
2022-12-19T19:41:56.533Z,3.26
2022-12-19T19:44:28.912Z,3.25
2022-12-19T19:47:02.111Z,3.39
2022-12-19T19:49:34.349Z,3.36
2022-12-19T19:52:06.894Z,3.36
2022-12-19T19:54:39.589Z,3.25
2022-12-19T19:57:11.917Z,3.21
2022-12-19T19:59:45.051Z,3.24
2022-12-19T20:02:18.091Z,3.33
2022-12-19T20:04:50.832Z,3.24
2022-12-19T20:07:23.305Z,3.36
2022-12-19T20:09:56.094Z,3.27
2022-12-19T20:12:28.597Z,3.32
2022-12-19T20:15:00.951Z,3.37
2022-12-19T20:17:36.323Z,3.56
2022-12-19T20:20:10.865Z,3.51
2022-12-19T20:22:43.561Z,3.42
2022-12-19T20:25:15.860Z,3.48
2022-12-19T20:27:48.121Z,3.58
2022-12-19T20:30:20.467Z,3.62
2022-12-19T20:32:52.841Z,3.59
2022-12-19T20:35:25.769Z,3.54
2022-12-19T20:37:58.202Z,3.50
2022-12-19T20:40:30.430Z,3.42
2022-12-19T20:43:02.596Z,3.54
2022-12-19T20:45:34.964Z,3.58
2022-12-19T20:48:07.622Z,3.47
2022-12-19T20:50:43.384Z,3.67
2022-12-19T20:53:15.813Z,3.67
2022-12-19T20:55:58.083Z,3.68
2022-12-19T20:58:33.075Z,3.56
2022-12-19T21:01:08.553Z,3.62
2022-12-19T21:03:41.741Z,3.66
2022-12-19T21:06:15.603Z,3.60
2022-12-19T21:08:48.217Z,3.59
2022-12-19T21:11:20.808Z,3.61
2022-12-19T21:13:53.702Z,3.66
2022-12-19T21:16:26.613Z,3.67
2022-12-19T21:19:00.346Z,3.79
2022-12-19T21:21:33.014Z,3.81
2022-12-19T21:24:05.388Z,3.77
2022-12-19T21:26:37.619Z,3.77
2022-12-19T21:29:09.775Z,3.76
2022-12-19T21:31:42.276Z,3.78
2022-12-19T21:34:14.458Z,3.75
2022-12-19T21:36:46.530Z,3.79
2022-12-19T21:39:20.768Z,3.90
2022-12-19T21:41:53.176Z,3.74
2022-12-19T21:44:25.505Z,3.87
2022-12-19T21:46:57.829Z,3.89
2022-12-19T21:49:30.566Z,3.90
2022-12-19T21:52:02.785Z,3.91
2022-12-19T21:54:35.181Z,3.83
2022-12-19T21:57:07.294Z,3.91
2022-12-19T21:59:39.527Z,3.83
2022-12-19T22:02:13.073Z,3.84
2022-12-19T22:04:46.135Z,3.99
2022-12-19T22:07:18.347Z,3.99
2022-12-19T22:09:50.720Z,4.00
2022-12-19T22:12:23.180Z,3.91
2022-12-19T22:14:58.152Z,3.91
2022-12-19T22:17:30.336Z,4.02
2022-12-19T22:20:03.180Z,3.96
2022-12-19T22:22:35.336Z,3.98
2022-12-19T22:25:08.677Z,3.91
2022-12-19T22:27:41.492Z,3.95
2022-12-19T22:30:14.341Z,3.89
2022-12-19T22:32:46.426Z,4.01
2022-12-19T22:35:18.967Z,4.00
2022-12-19T22:37:51.205Z,3.95
2022-12-19T22:40:23.353Z,3.99
2022-12-19T22:42:55.749Z,3.99
2022-12-19T22:45:31.186Z,3.97
2022-12-19T22:48:03.490Z,4.09
2022-12-19T22:50:35.938Z,4.01
2022-12-19T22:53:12.603Z,3.97
2022-12-19T22:55:45.574Z,4.05
2022-12-19T22:58:17.638Z,4.08
2022-12-19T23:00:49.845Z,4.03
2022-12-19T23:03:22.249Z,3.98
2022-12-19T23:05:54.631Z,4.04
2022-12-19T23:08:27.416Z,4.11
2022-12-19T23:11:02.022Z,4.12
2022-12-19T23:13:34.273Z,4.16
2022-12-19T23:16:07.613Z,4.07
2022-12-19T23:18:40.915Z,4.13
2022-12-19T23:21:15.508Z,4.21
2022-12-19T23:23:49.661Z,4.18
2022-12-19T23:26:23.627Z,4.20
2022-12-19T23:28:57.603Z,4.11
2022-12-19T23:31:30.748Z,4.13
2022-12-19T23:34:03.751Z,4.16
2022-12-19T23:37:09.778Z,4.27
2022-12-19T23:39:28.137Z,4.20
2022-12-19T23:42:00.955Z,4.30
2022-12-19T23:44:33.812Z,4.34
2022-12-19T23:47:06.215Z,4.17
2022-12-19T23:49:38.355Z,4.32
2022-12-19T23:52:10.807Z,4.32
2022-12-19T23:54:43.052Z,4.37
2022-12-19T23:57:15.331Z,4.35
2022-12-19T23:59:47.503Z,4.36
